Observation data for Brownfield on 12/12/2019      Previous  Date       Current Mesonet Observations  Soil Data  Daily Summary Page  Observations in Plain Language
KBWS 120600Z 21010KT 04/03 A3021 RMK A01 T00420033  RH  096%=      5-min Rain = 0
KBWS 120605Z 20010KT 04/03 A3021 RMK A01 T00400031  RH  096%=      5-min Rain = 0
KBWS 120610Z 20009KT 04/03 A3021 RMK A01 T00390031  RH  096%=      5-min Rain = 0
KBWS 120615Z 21008KT 04/03 A3022 RMK A01 T00380030  RH  096%=      5-min Rain = 0
KBWS 120620Z 21008KT 04/03 A3022 RMK A01 T00380030  RH  096%=      5-min Rain = 0
KBWS 120625Z 21007KT 04/03 A3022 RMK A01 T00370030  RH  097%=      5-min Rain = 0
KBWS 120630Z 22008KT 04/03 A3022 RMK A01 T00370030  RH  097%=      5-min Rain = 0
KBWS 120635Z 21007KT 04/03 A3021 RMK A01 T00370030  RH  097%=      5-min Rain = 0
KBWS 120640Z 21007KT 04/03 A3021 RMK A01 T00360029  RH  097%=      5-min Rain = 0
KBWS 120645Z 20007KT 03/03 A3021 RMK A01 T00340027  RH  097%=      5-min Rain = 0
KBWS 120650Z 20007KT 03/03 A3021 RMK A01 T00320026  RH  097%=      5-min Rain = 0
KBWS 120655Z 20007KT 03/03 A302 RMK A01 T00320025  RH  097%=      5-min Rain = 0
KBWS 120700Z 20007KT 03/03 A302 RMK A01 T00310025  RH  097%=      5-min Rain = 0
KBWS 120705Z 20008KT 03/03 A302 RMK A01 T00320026  RH  098%=      5-min Rain = 0
KBWS 120710Z 19009KT 03/03 A3019 RMK A01 T00320027  RH  098%=      5-min Rain = 0
KBWS 120715Z 20010KT 03/03 A3019 RMK A01 T00330027  RH  098%=      5-min Rain = 0
KBWS 120720Z 21010KT 03/03 A3019 RMK A01 T00340029  RH  098%=      5-min Rain = 0
KBWS 120725Z 21009KT 04/03 A302 RMK A01 T00360030  RH  098%=      5-min Rain = 0
KBWS 120730Z 21009KT 04/03 A302 RMK A01 T00380032  RH  098%=      5-min Rain = 0
KBWS 120735Z 21009KT 04/03 A3019 RMK A01 T00390034  RH  098%=      5-min Rain = 0
KBWS 120740Z 20010KT 04/03 A3019 RMK A01 T00390033  RH  098%=      5-min Rain = 0
KBWS 120745Z 20010KT 04/03 A3018 RMK A01 T00380032  RH  097%=      5-min Rain = 0
KBWS 120750Z 20011KT 04/03 A3018 RMK A01 T00400033  RH  097%=      5-min Rain = 0
KBWS 120755Z 19016G21KT 04/04 A3017 RMK A01 T00430036  RH  097%=      5-min Rain = 0
KBWS 120800Z 20018G26KT 05/04 A3016 RMK A01 T00450037  RH  097%=      5-min Rain = 0
KBWS 120805Z 20020G28KT 05/04 A3017 RMK A01 T00480039  RH  096%=      5-min Rain = 0
KBWS 120810Z 20017KT 05/04 A3017 RMK A01 T00490038  RH  095%=      5-min Rain = 0
KBWS 120815Z 20016KT 05/04 A3016 RMK A01 T00500039  RH  095%=      5-min Rain = 0
KBWS 120820Z 20016G24KT 05/04 A3016 RMK A01 T00510040  RH  094%=      5-min Rain = 0
KBWS 120825Z 20016KT 05/04 A3017 RMK A01 T00530041  RH  094%=      5-min Rain = 0
KBWS 120830Z 20018KT 05/04 A3016 RMK A01 T00540042  RH  094%=      5-min Rain = 0
KBWS 120835Z 20017KT 06/04 A3016 RMK A01 T00550042  RH  093%=      5-min Rain = 0
KBWS 120840Z 21018G24KT 06/04 A3016 RMK A01 T00560043  RH  093%=      5-min Rain = 0
KBWS 120845Z 21017G25KT 06/04 A3017 RMK A01 T00570043  RH  092%=      5-min Rain = 0
KBWS 120850Z 20018G23KT 06/04 A3016 RMK A01 T00560042  RH  092%=      5-min Rain = 0
KBWS 120855Z 21016G23KT 06/04 A3017 RMK A01 T00560042  RH  092%=      5-min Rain = 0
KBWS 120900Z 21017G22KT 06/04 A3017 RMK A01 T00560042  RH  092%=      5-min Rain = 0
KBWS 120905Z 21016G22KT 06/04 A3018 RMK A01 T00560042  RH  092%=      5-min Rain = 0
KBWS 120910Z 22016G22KT 06/04 A3018 RMK A01 T00560042  RH  092%=      5-min Rain = 0
KBWS 120915Z 22017KT 06/04 A3017 RMK A01 T00570042  RH  092%=      5-min Rain = 0
KBWS 120920Z 22015G20KT 06/04 A3018 RMK A01 T00570042  RH  092%=      5-min Rain = 0
KBWS 120925Z 22018KT 06/04 A3018 RMK A01 T00570042  RH  092%=      5-min Rain = 0
KBWS 120930Z 22016KT 06/04 A3017 RMK A01 T00570042  RH  092%=      5-min Rain = 0
KBWS 120935Z 21015KT 06/04 A3017 RMK A01 T00570042  RH  092%=      5-min Rain = 0
KBWS 120940Z 21015KT 06/04 A3016 RMK A01 T00560042  RH  092%=      5-min Rain = 0
KBWS 120945Z 21013KT 06/04 A3016 RMK A01 T00560041  RH  092%=      5-min Rain = 0
KBWS 120950Z 21014KT 06/04 A3016 RMK A01 T00560042  RH  092%=      5-min Rain = 0
KBWS 120955Z 21015G20KT 06/04 A3016 RMK A01 T00570042  RH  092%=      5-min Rain = 0
KBWS 121000Z 21013KT 06/04 A3015 RMK A01 T00570042  RH  092%=      5-min Rain = 0
KBWS 121005Z 21013KT 06/04 A3015 RMK A01 T00570042  RH  092%=      5-min Rain = 0
KBWS 121010Z 21015KT 06/04 A3015 RMK A01 T00560041  RH  092%=      5-min Rain = 0
KBWS 121015Z 21014KT 06/04 A3015 RMK A01 T00550041  RH  092%=      5-min Rain = 0
KBWS 121020Z 21013G20KT 06/04 A3015 RMK A01 T00550041  RH  092%=      5-min Rain = 0
KBWS 121025Z 21012KT 06/04 A3015 RMK A01 T00550041  RH  092%=      5-min Rain = 0
KBWS 121030Z 20012G17KT 06/04 A3014 RMK A01 T00550041  RH  093%=      5-min Rain = 0
KBWS 121035Z 20013KT 05/04 A3014 RMK A01 T00540041  RH  093%=      5-min Rain = 0
KBWS 121040Z 21013KT 05/04 A3014 RMK A01 T00540040  RH  093%=      5-min Rain = 0
KBWS 121045Z 21012KT 05/04 A3014 RMK A01 T00530040  RH  093%=      5-min Rain = 0
KBWS 121050Z 20015KT 05/04 A3014 RMK A01 T00530040  RH  093%=      5-min Rain = 0
KBWS 121055Z 20013KT 05/04 A3014 RMK A01 T00530039  RH  093%=      5-min Rain = 0
KBWS 121100Z 21011KT 05/04 A3014 RMK A01 T00530040  RH  093%=      5-min Rain = 0
KBWS 121105Z 21012KT 05/04 A3014 RMK A01 T00530040  RH  093%=      5-min Rain = 0
KBWS 121110Z 22012KT 05/04 A3014 RMK A01 T00530040  RH  093%=      5-min Rain = 0
KBWS 121115Z 22011KT 05/04 A3014 RMK A01 T00530040  RH  093%=      5-min Rain = 0
KBWS 121120Z 22011KT 05/04 A3014 RMK A01 T00530040  RH  093%=      5-min Rain = 0
KBWS 121125Z 22010KT 05/04 A3014 RMK A01 T00530040  RH  093%=      5-min Rain = 0
KBWS 121130Z 23011G16KT 05/04 A3014 RMK A01 T00530040  RH  093%=      5-min Rain = 0
KBWS 121135Z 22013G18KT 05/04 A3014 RMK A01 T00520040  RH  094%=      5-min Rain = 0
KBWS 121140Z 23013KT 05/04 A3014 RMK A01 T00520040  RH  094%=      5-min Rain = 0
KBWS 121145Z 23011KT 05/04 A3014 RMK A01 T00520041  RH  094%=      5-min Rain = 0
KBWS 121150Z 23010KT 05/04 A3014 RMK A01 T00520041  RH  094%=      5-min Rain = 0
KBWS 121155Z 23011KT 05/04 A3014 RMK A01 T00520041  RH  095%=      5-min Rain = 0
KBWS 121200Z 24009KT 05/04 A3014 RMK A01 T00520042  RH  095%=      5-min Rain = 0
KBWS 121205Z 24009KT 05/04 A3014 RMK A01 T00520042  RH  095%=      5-min Rain = 0
KBWS 121210Z 24010KT 05/04 A3014 RMK A01 T00520042  RH  095%=      5-min Rain = 0
KBWS 121215Z 23010KT 05/04 A3014 RMK A01 T00520042  RH  095%=      5-min Rain = 0
KBWS 121220Z 23010KT 05/04 A3014 RMK A01 T00520042  RH  096%=      5-min Rain = 0
KBWS 121225Z 23010KT 05/04 A3014 RMK A01 T00520043  RH  096%=      5-min Rain = 0
KBWS 121230Z 24009KT 05/04 A3014 RMK A01 T00520043  RH  096%=      5-min Rain = 0
KBWS 121235Z 24012KT 05/04 A3014 RMK A01 T00530043  RH  095%=      5-min Rain = 0
KBWS 121240Z 24009KT 05/04 A3014 RMK A01 T00530043  RH  095%=      5-min Rain = 0
KBWS 121245Z 23010KT 05/04 A3014 RMK A01 T00540043  RH  095%=      5-min Rain = 0
KBWS 121250Z 24009KT 05/04 A3014 RMK A01 T00540043  RH  095%=      5-min Rain = 0
KBWS 121255Z 24009KT 05/04 A3013 RMK A01 T00540043  RH  095%=      5-min Rain = 0
KBWS 121300Z 24009KT 05/04 A3013 RMK A01 T00540043  RH  095%=      5-min Rain = 0
KBWS 121305Z 24011KT 05/04 A3013 RMK A01 T00540043  RH  094%=      5-min Rain = 0
KBWS 121310Z 25010KT 06/04 A3014 RMK A01 T00550043  RH  094%=      5-min Rain = 0
KBWS 121315Z 24010KT 06/04 A3013 RMK A01 T00550043  RH  093%=      5-min Rain = 0
KBWS 121320Z 24009KT 06/04 A3013 RMK A01 T00550043  RH  094%=      5-min Rain = 0
KBWS 121325Z 24011KT 06/04 A3013 RMK A01 T00550043  RH  094%=      5-min Rain = 0
KBWS 121330Z 24010KT 06/04 A3013 RMK A01 T00550043  RH  094%=      5-min Rain = 0
KBWS 121335Z 25009KT 06/04 A3013 RMK A01 T00560043  RH  094%=      5-min Rain = 0
KBWS 121340Z 25008KT 06/04 A3013 RMK A01 T00560043  RH  093%=      5-min Rain = 0
KBWS 121345Z 25009KT 06/04 A3013 RMK A01 T00560043  RH  093%=      5-min Rain = 0
KBWS 121350Z 25009KT 06/04 A3013 RMK A01 T00560043  RH  093%=      5-min Rain = 0
KBWS 121355Z 24009KT 06/04 A3013 RMK A01 T00560043  RH  093%=      5-min Rain = 0
KBWS 121400Z 24011G16KT 06/04 A3012 RMK A01 T00570043  RH  093%=      5-min Rain = 0
KBWS 121405Z 24010KT 06/04 A3012 RMK A01 T00560043  RH  093%=      5-min Rain = 0
KBWS 121410Z 24009KT 06/04 A3012 RMK A01 T00570043  RH  093%=      5-min Rain = 0
KBWS 121415Z 25009KT 06/04 A3012 RMK A01 T00560042  RH  093%=      5-min Rain = 0
KBWS 121420Z 24008KT 06/04 A3012 RMK A01 T00570043  RH  093%=      5-min Rain = 0
KBWS 121425Z 25010KT 06/04 A3012 RMK A01 T00570044  RH  093%=      5-min Rain = 0
KBWS 121430Z 25010KT 06/04 A3012 RMK A01 T00570043  RH  093%=      5-min Rain = 0
KBWS 121435Z 24010KT 06/04 A3013 RMK A01 T00570044  RH  093%=      5-min Rain = 0
KBWS 121440Z 24010KT 06/04 A3013 RMK A01 T00580044  RH  093%=      5-min Rain = 0
KBWS 121445Z 24011KT 06/04 A3013 RMK A01 T00580044  RH  092%=      5-min Rain = 0
KBWS 121450Z 24009KT 06/04 A3013 RMK A01 T00580044  RH  092%=      5-min Rain = 0
KBWS 121455Z 25008KT 06/04 A3014 RMK A01 T00580043  RH  092%=      5-min Rain = 0
KBWS 121500Z 25008KT 06/04 A3014 RMK A01 T00570042  RH  092%=      5-min Rain = 0
KBWS 121505Z 26007KT 06/04 A3014 RMK A01 T00580042  RH  092%=      5-min Rain = 0
KBWS 121510Z 27007KT 06/04 A3014 RMK A01 T00580042  RH  091%=      5-min Rain = 0
KBWS 121515Z 25009KT 06/04 A3014 RMK A01 T00580041  RH  091%=      5-min Rain = 0
KBWS 121520Z 26007KT 06/04 A3014 RMK A01 T00570041  RH  091%=      5-min Rain = 0
KBWS 121525Z 26008KT 06/04 A3015 RMK A01 T00580041  RH  091%=      5-min Rain = 0
KBWS 121530Z 26007KT 06/04 A3014 RMK A01 T00600043  RH  091%=      5-min Rain = 0
KBWS 121535Z 25007KT 06/04 A3014 RMK A01 T00620043  RH  090%=      5-min Rain = 0
KBWS 121540Z 25007KT 06/04 A3015 RMK A01 T00640044  RH  089%=      5-min Rain = 0
KBWS 121545Z 27007KT 06/04 A3015 RMK A01 T00640041  RH  087%=      5-min Rain = 0
KBWS 121550Z 27007KT 06/04 A3015 RMK A01 T00640042  RH  087%=      5-min Rain = 0
KBWS 121555Z 25009KT 07/05 A3015 RMK A01 T00670045  RH  087%=      5-min Rain = 0
KBWS 121600Z 25010KT 07/04 A3015 RMK A01 T00690044  RH  086%=      5-min Rain = 0
KBWS 121605Z 26009KT 07/04 A3015 RMK A01 T00700042  RH  084%=      5-min Rain = 0
KBWS 121610Z 25008KT 07/04 A3015 RMK A01 T00690041  RH  084%=      5-min Rain = 0
KBWS 121615Z 25007KT 07/04 A3015 RMK A01 T00710043  RH  084%=      5-min Rain = 0
KBWS 121620Z 24010KT 07/04 A3015 RMK A01 T00730043  RH  083%=      5-min Rain = 0
KBWS 121625Z 25009KT 08/05 A3015 RMK A01 T00770045  RH  082%=      5-min Rain = 0
KBWS 121630Z 26010KT 07/04 A3015 RMK A01 T00740041  RH  081%=      5-min Rain = 0
KBWS 121635Z 25011KT 07/04 A3015 RMK A01 T00720041  RH  083%=      5-min Rain = 0
KBWS 121640Z 24010KT 08/04 A3015 RMK A01 T00760040  RH  080%=      5-min Rain = 0
KBWS 121645Z 24011G16KT 08/04 A3015 RMK A01 T00810042  RH  078%=      5-min Rain = 0
KBWS 121650Z 24011KT 08/04 A3014 RMK A01 T00820041  RH  077%=      5-min Rain = 0
KBWS 121655Z 24011KT 09/04 A3014 RMK A01 T00850039  RH  075%=      5-min Rain = 0
KBWS 121700Z 24009KT 09/04 A3014 RMK A01 T00850040  RH  075%=      5-min Rain = 0
KBWS 121705Z 24011KT 09/04 A3014 RMK A01 T00890041  RH  073%=      5-min Rain = 0
KBWS 121710Z 25011KT 10/04 A3014 RMK A01 T00950041  RH  070%=      5-min Rain = 0
KBWS 121715Z 26011KT 10/04 A3014 RMK A01 T00960038  RH  069%=      5-min Rain = 0
KBWS 121720Z 26011KT 10/04 A3014 RMK A01 T00980039  RH  068%=      5-min Rain = 0
KBWS 121725Z 26010G15KT 10/04 A3013 RMK A01 T01000036  RH  066%=      5-min Rain = 0
KBWS 121730Z 27012KT 11/03 A3013 RMK A01 T01050033  RH  062%=      5-min Rain = 0
KBWS 121735Z 27013G18KT 11/03 A3013 RMK A01 T01060029  RH  060%=      5-min Rain = 0
KBWS 121740Z 28012KT 11/03 A3013 RMK A01 T01100029  RH  058%=      5-min Rain = 0
KBWS 121745Z 27011KT 11/03 A3012 RMK A01 T01140032  RH  058%=      5-min Rain = 0
KBWS 121750Z 27011G16KT 12/03 A3012 RMK A01 T01170031  RH  057%=      5-min Rain = 0
KBWS 121755Z 27010KT 12/03 A3011 RMK A01 T01190032  RH  056%=      5-min Rain = 0
KBWS 121800Z 28010G19KT 13/03 A3011 RMK A01 T01250030  RH  053%=      5-min Rain = 0
KBWS 121805Z 28011KT 13/02 A301 RMK A01 T01330022  RH  048%=      5-min Rain = 0
KBWS 121810Z 28010KT 14/02 A301 RMK A01 T01360023  RH  047%=      5-min Rain = 0
KBWS 121815Z 28012G18KT 14/02 A3009 RMK A01 T01380015  RH  044%=      5-min Rain = 0
KBWS 121820Z 28011G17KT 14/01 A3009 RMK A01 T01430012  RH  041%=      5-min Rain = 0
KBWS 121825Z 29014G19KT 14/01 A3009 RMK A01 T01440006  RH  039%=      5-min Rain = 0
KBWS 121830Z 29014KT 14/00 A3009 RMK A01 T01440003  RH  039%=      5-min Rain = 0
KBWS 121835Z 29013KT 14/00 A3008 RMK A01 T01430004  RH  039%=      5-min Rain = 0
KBWS 121840Z 30013G19KT 14/00 A3008 RMK A01 T01420003  RH  039%=      5-min Rain = 0
KBWS 121845Z 29013KT 15/01 A3008 RMK A01 T01460005  RH  039%=      5-min Rain = 0
KBWS 121850Z 28012G18KT 15/01 A3007 RMK A01 T01510006  RH  038%=      5-min Rain = 0
KBWS 121855Z 29013G18KT 15/01 A3007 RMK A01 T01520005  RH  037%=      5-min Rain = 0
KBWS 121900Z 29014G19KT 15/00 A3007 RMK A01 T01520002  RH  037%=      5-min Rain = 0
KBWS 121905Z 28012KT 15/00 A3006 RMK A01 T01530002  RH  036%=      5-min Rain = 0
KBWS 121910Z 29012KT 16/00 A3006 RMK A01 T01570003  RH  035%=      5-min Rain = 0
KBWS 121915Z 29012KT 16/00 A3005 RMK A01 T01570001  RH  035%=      5-min Rain = 0
KBWS 121920Z 28011KT 16/00 A3005 RMK A01 T01590001  RH  034%=      5-min Rain = 0
KBWS 121925Z 28011G16KT 16/M00 A3005 RMK A01 T01611002  RH  033%=      5-min Rain = 0
KBWS 121930Z 30013G18KT 16/M00 A3005 RMK A01 T01591002  RH  034%=      5-min Rain = 0
KBWS 121935Z 28011KT 16/00 A3005 RMK A01 T015900-0  RH  034%=      5-min Rain = 0
KBWS 121940Z 28011G17KT 15/M00 A3004 RMK A01 T01541003  RH  035%=      5-min Rain = 0
KBWS 121945Z 29012G17KT 16/00 A3004 RMK A01 T015800-0  RH  034%=      5-min Rain = 0
KBWS 121950Z 28011KT 16/00 A3004 RMK A01 T01620000  RH  034%=      5-min Rain = 0
KBWS 121955Z 27012KT 17/00 A3004 RMK A01 T01650001  RH  033%=      5-min Rain = 0
KBWS 122000Z 27011KT 16/M01 A3003 RMK A01 T01641005  RH  032%=      5-min Rain = 0
KBWS 122005Z 29012KT 17/M01 A3003 RMK A01 T01651010  RH  031%=      5-min Rain = 0
KBWS 122010Z 29012KT 17/M01 A3003 RMK A01 T01671010  RH  030%=      5-min Rain = 0
KBWS 122015Z 30012KT 17/M02 A3003 RMK A01 T01681015  RH  029%=      5-min Rain = 0
KBWS 122020Z 29010G15KT 17/M02 A3003 RMK A01 T01681015  RH  029%=      5-min Rain = 0
KBWS 122025Z 28011KT 17/M02 A3002 RMK A01 T01681016  RH  029%=      5-min Rain = 0
KBWS 122030Z 29010G16KT 17/M02 A3002 RMK A01 T01661017  RH  029%=      5-min Rain = 0
KBWS 122035Z 28010G15KT 17/M02 A3002 RMK A01 T01711015  RH  028%=      5-min Rain = 0
KBWS 122040Z 29011G16KT 17/M02 A3002 RMK A01 T01721018  RH  028%=      5-min Rain = 0
KBWS 122045Z 29009KT 17/M02 A3002 RMK A01 T01691018  RH  028%=      5-min Rain = 0
KBWS 122050Z 29010G15KT 17/M02 A3002 RMK A01 T01681018  RH  028%=      5-min Rain = 0
KBWS 122055Z 29009G15KT 17/M02 A3002 RMK A01 T01701019  RH  028%=      5-min Rain = 0
KBWS 122100Z 29012KT 17/M02 A3002 RMK A01 T01671022  RH  028%=      5-min Rain = 0
KBWS 122105Z 29009KT 16/M02 A3002 RMK A01 T01631020  RH  029%=      5-min Rain = 0
KBWS 122110Z 28010G15KT 17/M02 A3002 RMK A01 T01671020  RH  028%=      5-min Rain = 0
KBWS 122115Z 29011KT 16/M02 A3001 RMK A01 T01611024  RH  028%=      5-min Rain = 0
KBWS 122120Z 28010KT 16/M02 A3001 RMK A01 T01601021  RH  029%=      5-min Rain = 0
KBWS 122125Z 28010KT 17/M02 A3001 RMK A01 T01681019  RH  028%=      5-min Rain = 0
KBWS 122130Z 27010KT 17/M01 A3001 RMK A01 T01721014  RH  028%=      5-min Rain = 0
KBWS 122135Z 28009G14KT 17/M02 A3001 RMK A01 T01711016  RH  028%=      5-min Rain = 0
KBWS 122140Z 28011KT 17/M02 A3001 RMK A01 T01681020  RH  028%=      5-min Rain = 0
KBWS 122145Z 27010KT 16/M02 A3001 RMK A01 T01611021  RH  029%=      5-min Rain = 0
KBWS 122150Z 27010KT 16/M02 A3002 RMK A01 T01581022  RH  029%=      5-min Rain = 0
KBWS 122155Z 29011G16KT 16/M03 A3002 RMK A01 T01581026  RH  028%=      5-min Rain = 0
KBWS 122200Z 28012KT 16/M03 A3002 RMK A01 T01581028  RH  028%=      5-min Rain = 0
KBWS 122205Z 27010KT 16/M03 A3001 RMK A01 T01561027  RH  028%=      5-min Rain = 0
KBWS 122210Z 27011KT 16/M03 A3001 RMK A01 T01561028  RH  028%=      5-min Rain = 0
KBWS 122215Z 27010KT 16/M03 A3001 RMK A01 T01561028  RH  028%=      5-min Rain = 0
KBWS 122220Z 27011KT 16/M03 A3001 RMK A01 T01601027  RH  028%=      5-min Rain = 0
KBWS 122225Z 27011G16KT 16/M03 A3001 RMK A01 T01621028  RH  027%=      5-min Rain = 0
KBWS 122230Z 27012KT 16/M03 A3001 RMK A01 T01611031  RH  027%=      5-min Rain = 0
KBWS 122235Z 28012KT 16/M03 A3001 RMK A01 T01591034  RH  027%=      5-min Rain = 0
KBWS 122240Z 28011KT 16/M03 A3001 RMK A01 T01581032  RH  027%=      5-min Rain = 0
KBWS 122245Z 27010KT 16/M03 A3001 RMK A01 T01571033  RH  027%=      5-min Rain = 0
KBWS 122250Z 27010KT 16/M03 A3001 RMK A01 T01561032  RH  027%=      5-min Rain = 0
KBWS 122255Z 28008KT 16/M03 A3001 RMK A01 T01551032  RH  028%=      5-min Rain = 0
KBWS 122300Z 28008KT 15/M03 A3001 RMK A01 T01541034  RH  027%=      5-min Rain = 0
KBWS 122305Z 27006KT 15/M04 A3001 RMK A01 T01531036  RH  027%=      5-min Rain = 0
KBWS 122310Z 27007KT 15/M04 A3001 RMK A01 T01501037  RH  027%=      5-min Rain = 0
KBWS 122315Z 27006KT 15/M04 A3001 RMK A01 T01481036  RH  028%=      5-min Rain = 0
KBWS 122320Z 27005KT 14/M04 A30 RMK A01 T01441036  RH  029%=      5-min Rain = 0
KBWS 122325Z 28006KT 14/M04 A3001 RMK A01 T01411036  RH  029%=      5-min Rain = 0
KBWS 122330Z 28006KT 14/M04 A30 RMK A01 T01371037  RH  030%=      5-min Rain = 0
KBWS 122335Z 28006KT 13/M04 A3001 RMK A01 T01331038  RH  030%=      5-min Rain = 0
KBWS 122340Z 28005KT 13/M04 A3001 RMK A01 T01281038  RH  031%=      5-min Rain = 0
KBWS 122345Z 28006KT 12/M04 A3001 RMK A01 T01241038  RH  032%=      5-min Rain = 0
KBWS 122350Z 28006KT 12/M04 A3001 RMK A01 T01221038  RH  033%=      5-min Rain = 0
KBWS 122355Z 28006KT 12/M04 A3001 RMK A01 T01201039  RH  033%=      5-min Rain = 0
KBWS 130000Z 27005KT 12/M04 A3001 RMK A01 T01171039  RH  034%=      5-min Rain = 0
KBWS 130005Z 26004KT 12/M04 A3001 RMK A01 T01171040  RH  033%=      5-min Rain = 0
KBWS 130010Z 26005KT 12/M04 A3001 RMK A01 T01161038  RH  034%=      5-min Rain = 0
KBWS 130015Z 25006KT 11/M03 A3001 RMK A01 T01101034  RH  036%=      5-min Rain = 0
KBWS 130020Z 26006KT 11/M03 A3001 RMK A01 T01061033  RH  038%=      5-min Rain = 0
KBWS 130025Z 25006KT 11/M04 A3001 RMK A01 T01051035  RH  037%=      5-min Rain = 0
KBWS 130030Z 25006KT 10/M04 A3001 RMK A01 T01031037  RH  037%=      5-min Rain = 0
KBWS 130035Z 24006KT 10/M04 A30 RMK A01 T00991036  RH  039%=      5-min Rain = 0
KBWS 130040Z 23006KT 09/M03 A30 RMK A01 T00931034  RH  041%=      5-min Rain = 0
KBWS 130045Z 24006KT 09/M03 A3001 RMK A01 T00881034  RH  042%=      5-min Rain = 0
KBWS 130050Z 23005KT 09/M03 A3001 RMK A01 T00891033  RH  042%=      5-min Rain = 0
KBWS 130055Z 24006KT 09/M03 A3001 RMK A01 T00911034  RH  041%=      5-min Rain = 0
KBWS 130100Z 25006KT 09/M04 A3001 RMK A01 T00931035  RH  040%=      5-min Rain = 0
KBWS 130105Z 25006KT 09/M03 A3001 RMK A01 T00921034  RH  041%=      5-min Rain = 0
KBWS 130110Z 25006KT 09/M03 A3001 RMK A01 T00901033  RH  042%=      5-min Rain = 0
KBWS 130115Z 25006KT 09/M03 A3001 RMK A01 T00921033  RH  042%=      5-min Rain = 0
KBWS 130120Z 25006KT 09/M03 A3001 RMK A01 T00901032  RH  042%=      5-min Rain = 0
KBWS 130125Z 24006KT 09/M03 A3001 RMK A01 T00851030  RH  044%=      5-min Rain = 0
KBWS 130130Z 24006KT 09/M03 A3001 RMK A01 T00881032  RH  043%=      5-min Rain = 0
KBWS 130135Z 25006KT 09/M03 A3001 RMK A01 T00921032  RH  042%=      5-min Rain = 0
KBWS 130140Z 25005KT 09/M03 A3001 RMK A01 T00931031  RH  042%=      5-min Rain = 0
KBWS 130145Z 25005KT 09/M03 A3001 RMK A01 T00931031  RH  042%=      5-min Rain = 0
KBWS 130150Z 25005KT 09/M03 A3001 RMK A01 T00851029  RH  045%=      5-min Rain = 0
KBWS 130155Z 25006KT 08/M03 A3001 RMK A01 T00781027  RH  048%=      5-min Rain = 0
KBWS 130200Z 24008KT 07/M02 A3001 RMK A01 T00731024  RH  051%=      5-min Rain = 0
KBWS 130205Z 24008KT 07/M02 A3001 RMK A01 T00731024  RH  051%=      5-min Rain = 0
KBWS 130210Z 25008KT 07/M02 A3001 RMK A01 T00711022  RH  052%=      5-min Rain = 0
KBWS 130215Z 25007KT 07/M02 A3001 RMK A01 T00741020  RH  052%=      5-min Rain = 0
KBWS 130220Z 25006KT 07/M02 A3001 RMK A01 T00681021  RH  054%=      5-min Rain = 0
KBWS 130225Z 26006KT 06/M02 A3001 RMK A01 T00641020  RH  055%=      5-min Rain = 0
KBWS 130230Z 29005KT 07/M02 A3002 RMK A01 T00671019  RH  055%=      5-min Rain = 0
KBWS 130235Z 31004KT 07/M02 A3002 RMK A01 T00651019  RH  055%=      5-min Rain = 0
KBWS 130240Z 32005KT 07/M02 A3002 RMK A01 T00671020  RH  054%=      5-min Rain = 0
KBWS 130245Z 28008KT 07/M02 A3002 RMK A01 T00711020  RH  053%=      5-min Rain = 0
KBWS 130250Z 29008KT 08/M02 A3002 RMK A01 T00811021  RH  049%=      5-min Rain = 0
KBWS 130255Z 29008KT 08/M02 A3002 RMK A01 T00801022  RH  049%=      5-min Rain = 0
KBWS 130300Z 29007KT 08/M02 A3002 RMK A01 T00791021  RH  049%=      5-min Rain = 0
KBWS 130305Z 30007KT 07/M02 A3002 RMK A01 T00741022  RH  051%=      5-min Rain = 0
KBWS 130310Z 30007KT 07/M02 A3001 RMK A01 T00721022  RH  052%=      5-min Rain = 0
KBWS 130315Z 30007KT 07/M02 A3002 RMK A01 T00691022  RH  053%=      5-min Rain = 0
KBWS 130320Z 29006KT 07/M02 A3001 RMK A01 T00681021  RH  053%=      5-min Rain = 0
KBWS 130325Z 30005KT 07/M02 A3001 RMK A01 T00671021  RH  054%=      5-min Rain = 0
KBWS 130330Z 31005KT 07/M02 A3001 RMK A01 T00651020  RH  055%=      5-min Rain = 0
KBWS 130335Z 31005KT 06/M02 A3001 RMK A01 T00641021  RH  055%=      5-min Rain = 0
KBWS 130340Z 30005KT 07/M02 A3001 RMK A01 T00661020  RH  055%=      5-min Rain = 0
KBWS 130345Z 29004KT 06/M02 A3001 RMK A01 T00621019  RH  056%=      5-min Rain = 0
KBWS 130350Z 29006KT 06/M02 A3001 RMK A01 T00621018  RH  057%=      5-min Rain = 0
KBWS 130355Z 27006KT 06/M02 A3001 RMK A01 T00611017  RH  058%=      5-min Rain = 0
KBWS 130400Z 28007KT 06/M02 A3001 RMK A01 T00611015  RH  059%=      5-min Rain = 0
KBWS 130405Z 27007KT 06/M02 A3001 RMK A01 T00611015  RH  059%=      5-min Rain = 0
KBWS 130410Z 27007KT 06/M01 A3001 RMK A01 T00601014  RH  060%=      5-min Rain = 0
KBWS 130415Z 27007KT 06/M01 A3001 RMK A01 T00601012  RH  060%=      5-min Rain = 0
KBWS 130420Z 26006KT 06/M01 A3001 RMK A01 T00581012  RH  061%=      5-min Rain = 0
KBWS 130425Z 27006KT 06/M01 A3001 RMK A01 T00561011  RH  063%=      5-min Rain = 0
KBWS 130430Z 28008KT 06/M01 A3001 RMK A01 T00551011  RH  063%=      5-min Rain = 0
KBWS 130435Z 28008KT 06/M01 A30 RMK A01 T00561011  RH  063%=      5-min Rain = 0
KBWS 130440Z 27007KT 06/M01 A30 RMK A01 T00561009  RH  064%=      5-min Rain = 0
KBWS 130445Z 28007KT 06/M01 A30 RMK A01 T00551008  RH  064%=      5-min Rain = 0
KBWS 130450Z 27008KT 06/M01 A30 RMK A01 T00571005  RH  065%=      5-min Rain = 0
KBWS 130455Z 26010KT 06/M00 A30 RMK A01 T00601002  RH  065%=      5-min Rain = 0
KBWS 130500Z 26009KT 06/00 A30 RMK A01 T00610000  RH  066%=      5-min Rain = 0
KBWS 130505Z 26009KT 06/00 A30 RMK A01 T00630002  RH  066%=      5-min Rain = 0
KBWS 130510Z 27008KT 06/00 A30 RMK A01 T00640002  RH  065%=      5-min Rain = 0
KBWS 130515Z 28008KT 06/00 A30 RMK A01 T00600000  RH  067%=      5-min Rain = 0
KBWS 130520Z 28007KT 06/M00 A30 RMK A01 T00571001  RH  067%=      5-min Rain = 0
KBWS 130525Z 27008KT 05/M00 A30 RMK A01 T00541002  RH  068%=      5-min Rain = 0
KBWS 130530Z 28008KT 05/M00 A30 RMK A01 T00521003  RH  068%=      5-min Rain = 0
KBWS 130535Z 27008KT 05/M00 A30 RMK A01 T00501003  RH  069%=      5-min Rain = 0
KBWS 130540Z 27008KT 05/M00 A30 RMK A01 T00531002  RH  069%=      5-min Rain = 0
KBWS 130545Z 27007KT 05/M00 A30 RMK A01 T00511003  RH  069%=      5-min Rain = 0
KBWS 130550Z 27008KT 05/M00 A30 RMK A01 T00491002  RH  070%=      5-min Rain = 0
KBWS 130555Z 27008KT 05/00 A30 RMK A01 T00530001  RH  070%=      5-min Rain = 0

Page generated in 0.01 seconds.